createdAt,value
2023-05-01T00:00:19.558Z,503.00
2023-05-01T00:01:19.466Z,500.00
2023-05-01T00:02:19.594Z,504.00
2023-05-01T00:03:19.648Z,502.00
2023-05-01T00:04:19.780Z,503.00
2023-05-01T00:05:19.613Z,502.00
2023-05-01T00:06:19.696Z,503.00
2023-05-01T00:07:20.573Z,503.00
2023-05-01T00:08:19.724Z,503.00
2023-05-01T00:09:19.785Z,502.00
2023-05-01T00:10:19.846Z,502.00
2023-05-01T00:11:19.861Z,504.00
2023-05-01T00:12:19.909Z,503.00
2023-05-01T00:13:19.964Z,505.00
2023-05-01T00:14:20.039Z,500.00
2023-05-01T00:15:20.093Z,501.00
2023-05-01T00:16:20.140Z,501.00
2023-05-01T00:17:20.156Z,503.00
2023-05-01T00:18:20.208Z,504.00
2023-05-01T00:19:20.282Z,504.00
2023-05-01T00:20:20.337Z,502.00
2023-05-01T00:21:20.365Z,503.00
2023-05-01T00:22:20.362Z,505.00
2023-05-01T00:23:20.403Z,502.00
2023-05-01T00:24:20.444Z,508.00
2023-05-01T00:25:20.602Z,507.00
2023-05-01T00:26:20.587Z,500.00
2023-05-01T00:27:20.583Z,504.00
2023-05-01T00:28:20.712Z,501.00
2023-05-01T00:29:20.660Z,504.00
2023-05-01T00:30:20.795Z,502.00
2023-05-01T00:31:20.834Z,501.00
2023-05-01T00:32:20.959Z,501.00
2023-05-01T00:33:20.866Z,501.00
2023-05-01T00:34:20.903Z,503.00
2023-05-01T00:35:20.998Z,505.00
2023-05-01T00:36:21.030Z,503.00
2023-05-01T00:37:21.038Z,502.00
2023-05-01T00:38:21.060Z,501.00
2023-05-01T00:39:21.143Z,506.00
2023-05-01T00:40:21.137Z,502.00
2023-05-01T00:41:21.365Z,502.00
2023-05-01T00:42:21.217Z,502.00
2023-05-01T00:43:21.268Z,504.00
2023-05-01T00:44:21.299Z,503.00
2023-05-01T00:45:21.332Z,502.00
2023-05-01T00:46:21.452Z,501.00
2023-05-01T00:47:21.463Z,503.00
2023-05-01T00:48:21.431Z,502.00
2023-05-01T00:49:21.540Z,502.00
2023-05-01T00:50:21.600Z,502.00
2023-05-01T00:51:21.576Z,502.00
2023-05-01T00:52:21.575Z,502.00
2023-05-01T00:53:21.603Z,502.00
2023-05-01T00:54:21.688Z,500.00
2023-05-01T00:55:21.682Z,503.00
2023-05-01T00:56:21.752Z,503.00
2023-05-01T00:57:21.786Z,505.00
2023-05-01T00:58:21.853Z,500.00
2023-05-01T00:59:21.867Z,504.00
2023-05-01T01:00:21.893Z,502.00
2023-05-01T01:01:21.946Z,504.00
2023-05-01T01:02:21.930Z,502.00
2023-05-01T01:03:21.935Z,503.00
2023-05-01T01:04:22.019Z,505.00
2023-05-01T01:05:22.623Z,505.00
2023-05-01T01:06:22.116Z,502.00
2023-05-01T01:07:22.093Z,503.00
2023-05-01T01:08:22.121Z,504.00
2023-05-01T01:09:22.184Z,503.00
2023-05-01T01:10:22.221Z,502.00
2023-05-01T01:11:22.240Z,502.00
2023-05-01T01:12:22.290Z,502.00
2023-05-01T01:13:22.323Z,501.00
2023-05-01T01:14:22.323Z,502.00
2023-05-01T01:15:22.374Z,501.00
2023-05-01T01:16:22.441Z,503.00
2023-05-01T01:17:22.468Z,503.00
2023-05-01T01:18:22.473Z,503.00
2023-05-01T01:19:22.499Z,501.00
2023-05-01T01:20:22.496Z,500.00
2023-05-01T01:21:22.528Z,502.00
2023-05-01T01:22:22.597Z,503.00
2023-05-01T01:23:22.603Z,503.00
2023-05-01T01:24:22.636Z,502.00
2023-05-01T01:25:22.644Z,500.00
2023-05-01T01:26:22.702Z,502.00
2023-05-01T01:27:22.783Z,504.00
2023-05-01T01:28:22.772Z,502.00
2023-05-01T01:29:22.849Z,501.00
2023-05-01T01:30:22.884Z,504.00
2023-05-01T01:31:22.887Z,502.00
2023-05-01T01:32:22.984Z,503.00
2023-05-01T01:33:22.909Z,501.00
2023-05-01T01:34:22.961Z,502.00
2023-05-01T01:35:22.996Z,504.00
2023-05-01T01:36:23.069Z,503.00
2023-05-01T01:37:23.067Z,505.00
2023-05-01T01:38:23.132Z,501.00
2023-05-01T01:39:23.140Z,503.00
2023-05-01T01:40:23.188Z,503.00
2023-05-01T01:41:23.249Z,503.00
2023-05-01T01:42:23.299Z,502.00
2023-05-01T01:43:23.297Z,502.00
2023-05-01T01:44:23.325Z,503.00
2023-05-01T01:45:23.384Z,504.00
2023-05-01T01:46:23.483Z,500.00
2023-05-01T01:47:23.513Z,501.00
2023-05-01T01:48:23.492Z,502.00
2023-05-01T01:49:23.488Z,503.00
2023-05-01T01:50:23.577Z,503.00
2023-05-01T01:51:23.605Z,503.00
2023-05-01T01:52:23.640Z,502.00
2023-05-01T01:53:23.657Z,502.00
2023-05-01T01:54:23.677Z,502.00
2023-05-01T01:55:23.710Z,502.00
2023-05-01T01:56:23.719Z,500.00
2023-05-01T01:57:23.769Z,502.00
2023-05-01T01:58:23.831Z,503.00
2023-05-01T01:59:23.848Z,505.00
2023-05-01T02:00:23.888Z,506.00
2023-05-01T02:01:23.938Z,505.00
2023-05-01T02:02:23.992Z,504.00
2023-05-01T02:03:24.104Z,504.00
2023-05-01T02:04:24.033Z,504.00
2023-05-01T02:05:24.069Z,505.00
2023-05-01T02:06:24.113Z,503.00
2023-05-01T02:07:26.123Z,504.00
2023-05-01T02:08:24.169Z,503.00
2023-05-01T02:09:24.209Z,502.00
2023-05-01T02:10:24.246Z,502.00
2023-05-01T02:11:24.261Z,504.00
2023-05-01T02:12:24.325Z,503.00
2023-05-01T02:13:24.339Z,504.00
2023-05-01T02:14:24.351Z,503.00
2023-05-01T02:15:24.359Z,503.00
2023-05-01T02:16:24.437Z,502.00
2023-05-01T02:17:24.419Z,505.00
2023-05-01T02:18:24.382Z,501.00
2023-05-01T02:19:24.390Z,504.00
2023-05-01T02:20:24.409Z,501.00
2023-05-01T02:21:24.430Z,503.00
2023-05-01T02:22:24.592Z,503.00
2023-05-01T02:23:24.417Z,505.00
2023-05-01T02:24:24.423Z,507.00
2023-05-01T02:25:24.456Z,503.00
2023-05-01T02:26:24.538Z,503.00
2023-05-01T02:27:24.547Z,503.00
2023-05-01T02:28:24.594Z,503.00
2023-05-01T02:29:24.632Z,502.00
2023-05-01T02:30:24.667Z,503.00
2023-05-01T02:31:24.725Z,502.00
2023-05-01T02:32:25.158Z,503.00
2023-05-01T02:33:24.771Z,504.00
2023-05-01T02:34:24.830Z,501.00
2023-05-01T02:35:24.824Z,504.00
2023-05-01T02:36:24.898Z,502.00
2023-05-01T02:37:24.915Z,502.00
2023-05-01T02:38:24.977Z,502.00
2023-05-01T02:39:25.030Z,502.00
2023-05-01T02:40:25.028Z,504.00
2023-05-01T02:41:25.105Z,503.00
2023-05-01T02:42:25.137Z,503.00
2023-05-01T02:43:25.153Z,503.00
2023-05-01T02:44:25.190Z,502.00
2023-05-01T02:45:25.312Z,503.00
2023-05-01T02:46:25.323Z,503.00
2023-05-01T02:47:27.241Z,502.00
2023-05-01T02:48:25.324Z,504.00
2023-05-01T02:49:25.365Z,502.00
2023-05-01T02:50:25.357Z,502.00
2023-05-01T02:51:25.394Z,501.00
2023-05-01T02:52:25.423Z,502.00
2023-05-01T02:53:25.464Z,502.00
2023-05-01T02:54:25.480Z,501.00
2023-05-01T02:55:25.500Z,502.00
2023-05-01T02:56:25.575Z,503.00
2023-05-01T02:57:25.566Z,500.00
2023-05-01T02:58:25.607Z,504.00
2023-05-01T02:59:25.670Z,503.00
2023-05-01T03:00:25.733Z,501.00
2023-05-01T03:01:25.841Z,503.00
2023-05-01T03:02:25.793Z,502.00
2023-05-01T03:03:25.798Z,504.00
2023-05-01T03:04:25.900Z,503.00
2023-05-01T03:05:25.892Z,505.00
2023-05-01T03:06:25.952Z,504.00
2023-05-01T03:07:25.976Z,505.00
2023-05-01T03:08:26.068Z,505.00
2023-05-01T03:09:26.023Z,503.00
2023-05-01T03:10:26.082Z,501.00
2023-05-01T03:11:26.117Z,507.00
2023-05-01T03:12:26.186Z,504.00
2023-05-01T03:13:26.125Z,500.00
2023-05-01T03:14:26.156Z,504.00
2023-05-01T03:15:26.186Z,503.00
2023-05-01T03:16:26.244Z,506.00
2023-05-01T03:17:26.252Z,503.00
2023-05-01T03:18:26.243Z,503.00
2023-05-01T03:19:26.329Z,504.00
2023-05-01T03:20:27.443Z,502.00
2023-05-01T03:21:26.333Z,503.00
2023-05-01T03:22:26.387Z,503.00
2023-05-01T03:23:26.437Z,506.00
2023-05-01T03:24:26.466Z,502.00
2023-05-01T03:25:26.500Z,503.00
2023-05-01T03:26:26.535Z,502.00
2023-05-01T03:27:26.605Z,501.00
2023-05-01T03:28:26.659Z,500.00
2023-05-01T03:29:26.671Z,502.00
2023-05-01T03:30:26.719Z,503.00
2023-05-01T03:31:26.815Z,504.00
2023-05-01T03:32:26.902Z,505.00
2023-05-01T03:33:26.855Z,505.00
2023-05-01T03:34:26.913Z,503.00
2023-05-01T03:35:26.980Z,505.00
2023-05-01T03:36:27.023Z,503.00
2023-05-01T03:37:27.025Z,500.00
2023-05-01T03:38:27.005Z,501.00
2023-05-01T03:39:27.113Z,504.00
2023-05-01T03:40:27.084Z,502.00
2023-05-01T03:41:27.119Z,504.00
2023-05-01T03:42:27.162Z,503.00
2023-05-01T03:43:27.184Z,501.00
2023-05-01T03:44:27.208Z,504.00
2023-05-01T03:45:27.237Z,505.00
2023-05-01T03:46:27.392Z,500.00
2023-05-01T03:47:27.704Z,504.00
2023-05-01T03:48:27.351Z,500.00
2023-05-01T03:49:27.379Z,503.00
2023-05-01T03:50:27.400Z,503.00
2023-05-01T03:51:27.446Z,500.00
2023-05-01T03:52:27.473Z,501.00
2023-05-01T03:53:27.479Z,504.00
2023-05-01T03:54:27.545Z,505.00
2023-05-01T03:55:27.577Z,503.00
2023-05-01T03:56:27.633Z,503.00
2023-05-01T03:57:27.679Z,505.00
2023-05-01T03:58:27.728Z,502.00
2023-05-01T03:59:27.753Z,507.00
2023-05-01T04:00:27.782Z,504.00
2023-05-01T04:01:27.832Z,504.00
2023-05-01T04:02:28.010Z,502.00
2023-05-01T04:03:27.988Z,504.00
2023-05-01T04:04:28.007Z,501.00
2023-05-01T04:05:27.993Z,504.00
2023-05-01T04:06:28.130Z,503.00
2023-05-01T04:07:28.116Z,502.00
2023-05-01T04:08:28.118Z,503.00
2023-05-01T04:09:28.126Z,507.00
2023-05-01T04:10:28.187Z,506.00
2023-05-01T04:11:28.222Z,502.00
2023-05-01T04:12:28.229Z,504.00
2023-05-01T04:13:28.286Z,505.00
2023-05-01T04:14:28.324Z,502.00
2023-05-01T04:15:28.426Z,504.00
2023-05-01T04:16:28.451Z,503.00
2023-05-01T04:17:28.461Z,504.00
2023-05-01T04:18:28.520Z,503.00
2023-05-01T04:19:28.544Z,504.00
2023-05-01T04:20:28.582Z,502.00
2023-05-01T04:21:28.660Z,504.00
2023-05-01T04:22:28.694Z,503.00
2023-05-01T04:23:28.778Z,506.00
2023-05-01T04:24:28.799Z,503.00
2023-05-01T04:25:28.812Z,503.00
2023-05-01T04:26:28.882Z,503.00
2023-05-01T04:27:29.162Z,503.00
2023-05-01T04:28:28.969Z,505.00
2023-05-01T04:29:29.113Z,502.00
2023-05-01T04:30:29.035Z,503.00
2023-05-01T04:31:29.187Z,502.00
2023-05-01T04:32:29.155Z,504.00
2023-05-01T04:33:29.187Z,503.00
2023-05-01T04:34:29.292Z,503.00
2023-05-01T04:35:29.347Z,504.00
2023-05-01T04:36:29.306Z,505.00
2023-05-01T04:37:30.183Z,503.00
2023-05-01T04:38:29.392Z,503.00
2023-05-01T04:39:29.417Z,505.00
2023-05-01T04:40:29.439Z,506.00
2023-05-01T04:41:29.541Z,503.00
2023-05-01T04:42:29.521Z,505.00
2023-05-01T04:43:29.607Z,505.00
2023-05-01T04:44:29.642Z,505.00
2023-05-01T04:45:29.688Z,507.00
2023-05-01T04:46:30.176Z,503.00
2023-05-01T04:47:30.650Z,503.00
2023-05-01T04:48:29.818Z,502.00
2023-05-01T04:49:29.864Z,504.00
2023-05-01T04:50:29.880Z,504.00
2023-05-01T04:51:29.936Z,506.00
2023-05-01T04:52:29.983Z,502.00
2023-05-01T04:53:30.054Z,505.00
2023-05-01T04:54:30.077Z,505.00
2023-05-01T04:55:31.190Z,503.00
2023-05-01T04:56:30.184Z,504.00
2023-05-01T04:57:30.226Z,502.00
2023-05-01T04:58:30.290Z,505.00
2023-05-01T04:59:30.278Z,501.00
2023-05-01T05:00:30.334Z,503.00
2023-05-01T05:01:30.342Z,503.00
2023-05-01T05:02:30.452Z,502.00
2023-05-01T05:03:30.450Z,501.00
2023-05-01T05:04:30.442Z,501.00
2023-05-01T05:05:30.565Z,502.00
2023-05-01T05:06:30.509Z,503.00
2023-05-01T05:07:30.546Z,503.00
2023-05-01T05:08:30.618Z,501.00
2023-05-01T05:09:30.618Z,501.00
2023-05-01T05:10:30.666Z,501.00
2023-05-01T05:11:30.690Z,503.00
2023-05-01T05:12:30.715Z,504.00
2023-05-01T05:13:30.836Z,502.00
2023-05-01T05:14:30.845Z,503.00
2023-05-01T05:15:30.880Z,503.00
2023-05-01T05:16:30.907Z,504.00
2023-05-01T05:17:30.997Z,500.00
2023-05-01T05:18:30.992Z,507.00
2023-05-01T05:19:31.073Z,506.00
2023-05-01T05:20:31.102Z,504.00
2023-05-01T05:21:31.124Z,503.00
2023-05-01T05:22:31.181Z,508.00
2023-05-01T05:23:31.203Z,503.00
2023-05-01T05:24:31.247Z,504.00
2023-05-01T05:25:31.258Z,504.00
2023-05-01T05:26:31.350Z,505.00
2023-05-01T05:27:31.345Z,502.00
2023-05-01T05:28:31.368Z,502.00
2023-05-01T05:29:31.450Z,504.00
2023-05-01T05:30:31.482Z,503.00
2023-05-01T05:31:31.559Z,503.00
2023-05-01T05:32:31.670Z,502.00
2023-05-01T05:33:31.565Z,503.00
2023-05-01T05:34:31.581Z,503.00
2023-05-01T05:35:31.648Z,504.00
2023-05-01T05:36:31.718Z,504.00
2023-05-01T05:37:31.745Z,505.00
2023-05-01T05:38:31.752Z,503.00
2023-05-01T05:39:31.824Z,502.00
2023-05-01T05:40:31.824Z,504.00
2023-05-01T05:41:31.840Z,505.00
2023-05-01T05:42:31.885Z,503.00
2023-05-01T05:43:32.681Z,503.00
2023-05-01T05:44:31.966Z,505.00
2023-05-01T05:45:31.975Z,505.00
2023-05-01T05:46:32.163Z,504.00
2023-05-01T05:47:32.037Z,505.00
2023-05-01T05:48:32.089Z,505.00
2023-05-01T05:49:32.134Z,503.00
2023-05-01T05:50:32.090Z,505.00
2023-05-01T05:51:32.150Z,504.00
2023-05-01T05:52:32.152Z,503.00
2023-05-01T05:53:32.200Z,506.00
2023-05-01T05:54:32.203Z,504.00
2023-05-01T05:55:32.232Z,503.00
2023-05-01T05:56:32.300Z,505.00
2023-05-01T05:57:32.314Z,504.00
2023-05-01T05:58:32.341Z,504.00
2023-05-01T05:59:32.357Z,502.00
2023-05-01T06:00:32.377Z,504.00
2023-05-01T06:01:32.446Z,503.00
2023-05-01T06:02:32.589Z,503.00
2023-05-01T06:03:32.595Z,505.00
2023-05-01T06:04:32.506Z,507.00
2023-05-01T06:05:32.670Z,507.00
2023-05-01T06:06:32.637Z,505.00
2023-05-01T06:07:32.652Z,507.00
2023-05-01T06:08:32.740Z,504.00
2023-05-01T06:09:32.754Z,504.00
2023-05-01T06:10:32.770Z,501.00
2023-05-01T06:11:32.784Z,503.00
2023-05-01T06:12:33.717Z,503.00
2023-05-01T06:13:32.936Z,508.00
2023-05-01T06:14:32.786Z,506.00
2023-05-01T06:15:32.847Z,504.00
2023-05-01T06:16:32.857Z,502.00
2023-05-01T06:17:32.813Z,503.00
2023-05-01T06:18:32.791Z,505.00
2023-05-01T06:19:32.741Z,504.00
2023-05-01T06:20:32.790Z,505.00
2023-05-01T06:21:32.771Z,504.00
2023-05-01T06:22:32.762Z,502.00
2023-05-01T06:23:32.749Z,501.00
2023-05-01T06:24:32.721Z,503.00
2023-05-01T06:25:32.717Z,503.00
2023-05-01T06:26:32.703Z,501.00
2023-05-01T06:27:32.715Z,504.00
2023-05-01T06:28:32.691Z,500.00
2023-05-01T06:29:32.695Z,503.00
2023-05-01T06:30:32.708Z,502.00
2023-05-01T06:31:32.726Z,503.00
2023-05-01T06:32:32.837Z,504.00
2023-05-01T06:33:32.685Z,502.00
2023-05-01T06:34:32.631Z,506.00
2023-05-01T06:35:32.648Z,503.00
2023-05-01T06:36:32.650Z,504.00
2023-05-01T06:37:32.643Z,501.00
2023-05-01T06:38:32.602Z,504.00
2023-05-01T06:39:32.641Z,502.00
2023-05-01T06:40:32.600Z,505.00
2023-05-01T06:41:32.604Z,506.00
2023-05-01T06:42:32.639Z,504.00
2023-05-01T06:43:32.622Z,503.00
2023-05-01T06:44:32.972Z,503.00
2023-05-01T06:45:32.577Z,504.00
2023-05-01T06:46:32.587Z,502.00
2023-05-01T06:47:32.680Z,503.00
2023-05-01T06:48:32.567Z,501.00
2023-05-01T06:49:32.528Z,503.00
2023-05-01T06:50:32.541Z,504.00
2023-05-01T06:51:32.560Z,500.00
2023-05-01T06:52:32.576Z,505.00
2023-05-01T06:53:32.534Z,503.00
2023-05-01T06:54:32.504Z,504.00
2023-05-01T06:55:33.800Z,504.00
2023-05-01T06:56:32.505Z,505.00
2023-05-01T06:57:32.474Z,507.00
2023-05-01T06:58:33.198Z,506.00
2023-05-01T06:59:32.564Z,507.00
2023-05-01T07:00:32.482Z,509.00
2023-05-01T07:01:34.681Z,502.00
2023-05-01T07:02:32.559Z,502.00
2023-05-01T07:03:32.521Z,503.00
2023-05-01T07:04:32.490Z,504.00
2023-05-01T07:05:32.578Z,503.00
2023-05-01T07:06:32.535Z,506.00
2023-05-01T07:07:32.460Z,503.00
2023-05-01T07:08:32.412Z,502.00
2023-05-01T07:09:32.429Z,500.00
2023-05-01T07:10:32.396Z,502.00
2023-05-01T07:11:32.420Z,501.00
2023-05-01T07:12:32.386Z,503.00
2023-05-01T07:13:32.357Z,503.00
2023-05-01T07:14:32.369Z,502.00
2023-05-01T07:15:32.392Z,504.00
2023-05-01T07:16:32.434Z,503.00
2023-05-01T07:17:32.421Z,505.00
2023-05-01T07:18:33.229Z,506.00
2023-05-01T07:19:32.377Z,505.00
2023-05-01T07:20:32.336Z,504.00
2023-05-01T07:21:32.359Z,505.00
2023-05-01T07:22:32.321Z,503.00
2023-05-01T07:23:32.347Z,504.00
2023-05-01T07:24:32.413Z,501.00
2023-05-01T07:25:32.290Z,504.00
2023-05-01T07:26:32.344Z,508.00
2023-05-01T07:27:32.286Z,502.00
2023-05-01T07:28:32.275Z,507.00
2023-05-01T07:29:32.260Z,505.00
2023-05-01T07:30:32.274Z,503.00
2023-05-01T07:31:32.321Z,506.00
2023-05-01T07:32:32.383Z,502.00
2023-05-01T07:33:32.295Z,502.00
2023-05-01T07:34:32.342Z,503.00
2023-05-01T07:35:32.333Z,500.00
2023-05-01T07:36:32.234Z,506.00
2023-05-01T07:37:32.352Z,504.00
2023-05-01T07:38:32.201Z,502.00
2023-05-01T07:39:32.336Z,504.00
2023-05-01T07:40:32.203Z,501.00
2023-05-01T07:41:32.258Z,501.00
2023-05-01T07:42:32.329Z,503.00
2023-05-01T07:43:32.274Z,504.00
2023-05-01T07:44:32.270Z,502.00
2023-05-01T07:45:32.235Z,503.00
2023-05-01T07:46:32.201Z,502.00
2023-05-01T07:47:32.221Z,506.00
2023-05-01T07:48:32.159Z,502.00
2023-05-01T07:49:32.164Z,503.00
2023-05-01T07:50:32.126Z,507.00
2023-05-01T07:51:32.215Z,504.00
2023-05-01T07:52:32.183Z,507.00
2023-05-01T07:53:32.387Z,502.00
2023-05-01T07:54:32.249Z,505.00
2023-05-01T07:55:32.329Z,503.00
2023-05-01T07:56:32.404Z,505.00
2023-05-01T07:57:32.366Z,505.00
2023-05-01T07:58:32.427Z,503.00
2023-05-01T07:59:32.494Z,505.00
2023-05-01T08:00:32.473Z,505.00
2023-05-01T08:01:32.528Z,502.00
2023-05-01T08:02:32.792Z,504.00
2023-05-01T08:03:32.803Z,506.00
2023-05-01T08:04:32.795Z,506.00
2023-05-01T08:05:32.715Z,505.00
2023-05-01T08:06:32.857Z,503.00
2023-05-01T08:07:32.830Z,505.00
2023-05-01T08:08:32.887Z,506.00
2023-05-01T08:09:32.909Z,504.00
2023-05-01T08:10:32.938Z,505.00
2023-05-01T08:11:32.984Z,505.00
2023-05-01T08:12:33.074Z,505.00
2023-05-01T08:13:33.746Z,507.00
2023-05-01T08:14:33.139Z,505.00
2023-05-01T08:15:33.175Z,504.00
2023-05-01T08:16:33.289Z,504.00
2023-05-01T08:17:33.393Z,507.00
2023-05-01T08:18:33.298Z,506.00
2023-05-01T08:19:33.344Z,504.00
2023-05-01T08:20:33.393Z,507.00
2023-05-01T08:21:33.388Z,505.00
2023-05-01T08:22:33.490Z,507.00
2023-05-01T08:23:33.489Z,509.00
2023-05-01T08:24:33.506Z,506.00
2023-05-01T08:25:33.577Z,506.00
2023-05-01T08:26:33.570Z,508.00
2023-05-01T08:27:33.680Z,506.00
2023-05-01T08:28:33.607Z,504.00
2023-05-01T08:29:33.671Z,506.00
2023-05-01T08:30:33.706Z,507.00
2023-05-01T08:31:33.729Z,507.00
2023-05-01T08:32:33.951Z,505.00
2023-05-01T08:33:33.809Z,507.00
2023-05-01T08:34:33.804Z,505.00
2023-05-01T08:35:33.854Z,508.00
2023-05-01T08:36:33.866Z,506.00
2023-05-01T08:37:34.265Z,506.00
2023-05-01T08:38:33.998Z,507.00
2023-05-01T08:39:33.958Z,505.00
2023-05-01T08:40:33.936Z,502.00
2023-05-01T08:41:34.004Z,507.00
2023-05-01T08:42:34.039Z,508.00
2023-05-01T08:43:34.037Z,503.00
2023-05-01T08:44:34.105Z,507.00
2023-05-01T08:45:34.141Z,506.00
2023-05-01T08:46:34.293Z,507.00
2023-05-01T08:47:34.813Z,502.00
2023-05-01T08:48:34.246Z,510.00
2023-05-01T08:49:34.207Z,505.00
2023-05-01T08:50:34.223Z,505.00
2023-05-01T08:51:34.263Z,508.00
2023-05-01T08:52:34.826Z,507.00
2023-05-01T08:53:34.365Z,504.00
2023-05-01T08:54:34.406Z,504.00
2023-05-01T08:55:34.470Z,507.00
2023-05-01T08:56:34.435Z,503.00
2023-05-01T08:57:34.764Z,503.00
2023-05-01T08:58:34.514Z,503.00
2023-05-01T08:59:34.538Z,502.00
2023-05-01T09:00:34.569Z,504.00
2023-05-01T09:01:34.602Z,504.00
2023-05-01T09:02:34.677Z,504.00
2023-05-01T09:03:34.705Z,504.00
2023-05-01T09:04:34.679Z,503.00
2023-05-01T09:05:34.709Z,502.00
2023-05-01T09:06:34.803Z,503.00
2023-05-01T09:07:34.847Z,504.00
2023-05-01T09:08:34.817Z,503.00
2023-05-01T09:09:34.820Z,503.00
2023-05-01T09:10:34.873Z,503.00
2023-05-01T09:11:34.872Z,502.00
2023-05-01T09:12:35.310Z,501.00
2023-05-01T09:13:34.978Z,503.00
2023-05-01T09:14:35.070Z,504.00
2023-05-01T09:15:35.043Z,502.00
2023-05-01T09:16:35.117Z,503.00
2023-05-01T09:17:35.098Z,501.00
2023-05-01T09:18:35.126Z,500.00
2023-05-01T09:19:35.121Z,501.00
2023-05-01T09:20:35.150Z,500.00
2023-05-01T09:21:35.216Z,501.00
2023-05-01T09:22:35.325Z,507.00
2023-05-01T09:23:35.251Z,501.00
2023-05-01T09:24:35.259Z,503.00
2023-05-01T09:25:35.337Z,506.00
2023-05-01T09:26:35.325Z,504.00
2023-05-01T09:27:35.369Z,501.00
2023-05-01T09:28:35.402Z,502.00
2023-05-01T09:29:35.404Z,503.00
2023-05-01T09:30:35.564Z,503.00
2023-05-01T09:31:35.558Z,502.00
2023-05-01T09:32:35.673Z,506.00
2023-05-01T09:33:35.572Z,504.00
2023-05-01T09:34:35.555Z,505.00
2023-05-01T09:35:35.609Z,505.00
2023-05-01T09:36:35.624Z,505.00
2023-05-01T09:37:35.664Z,502.00
2023-05-01T09:38:35.686Z,507.00
2023-05-01T09:39:35.677Z,504.00
2023-05-01T09:40:35.755Z,503.00
2023-05-01T09:41:35.757Z,503.00
2023-05-01T09:42:35.820Z,503.00
2023-05-01T09:43:35.769Z,501.00
2023-05-01T09:44:35.833Z,502.00
2023-05-01T09:45:35.914Z,500.00
2023-05-01T09:46:35.956Z,500.00
2023-05-01T09:47:35.952Z,504.00
2023-05-01T09:48:36.295Z,504.00
2023-05-01T09:49:36.012Z,503.00
2023-05-01T09:50:36.017Z,502.00
2023-05-01T09:51:36.055Z,504.00
2023-05-01T09:52:36.079Z,503.00
2023-05-01T09:53:36.121Z,502.00
2023-05-01T09:54:36.145Z,501.00
2023-05-01T09:55:36.168Z,506.00
2023-05-01T09:56:36.205Z,506.00
2023-05-01T09:57:36.305Z,506.00
2023-05-01T09:58:36.320Z,508.00
2023-05-01T09:59:36.400Z,506.00
2023-05-01T10:00:36.416Z,505.00
2023-05-01T10:01:36.477Z,504.00
2023-05-01T10:02:36.855Z,504.00
2023-05-01T10:03:36.550Z,505.00
2023-05-01T10:04:36.557Z,504.00
2023-05-01T10:05:36.614Z,506.00
2023-05-01T10:06:36.671Z,503.00
2023-05-01T10:07:36.690Z,502.00
2023-05-01T10:08:36.689Z,504.00
2023-05-01T10:09:36.720Z,503.00
2023-05-01T10:10:36.728Z,501.00
2023-05-01T10:11:36.776Z,502.00
2023-05-01T10:12:36.819Z,506.00
2023-05-01T10:13:36.834Z,504.00
2023-05-01T10:14:36.846Z,505.00
2023-05-01T10:15:36.876Z,501.00
2023-05-01T10:16:36.998Z,504.00
2023-05-01T10:17:37.012Z,504.00
2023-05-01T10:18:36.985Z,503.00
2023-05-01T10:19:37.045Z,503.00
2023-05-01T10:20:37.088Z,501.00
2023-05-01T10:21:37.101Z,500.00
2023-05-01T10:22:37.202Z,502.00
2023-05-01T10:23:37.192Z,506.00
2023-05-01T10:24:37.201Z,509.00
2023-05-01T10:25:37.247Z,507.00
2023-05-01T10:26:37.246Z,508.00
2023-05-01T10:27:37.330Z,505.00
2023-05-01T10:28:37.286Z,507.00
2023-05-01T10:29:37.306Z,507.00
2023-05-01T10:30:38.314Z,507.00
2023-05-01T10:31:38.217Z,506.00
2023-05-01T10:32:37.497Z,507.00
2023-05-01T10:33:38.259Z,508.00
2023-05-01T10:34:37.478Z,510.00
2023-05-01T10:35:37.529Z,509.00
2023-05-01T10:36:37.560Z,506.00
2023-05-01T10:37:37.621Z,508.00
2023-05-01T10:38:37.596Z,506.00
2023-05-01T10:39:37.652Z,512.00
2023-05-01T10:40:37.729Z,512.00
2023-05-01T10:41:37.678Z,511.00
2023-05-01T10:42:37.752Z,508.00
2023-05-01T10:43:37.717Z,509.00
2023-05-01T10:44:37.768Z,510.00
2023-05-01T10:45:37.831Z,510.00
2023-05-01T10:46:37.966Z,516.00
2023-05-01T10:47:38.820Z,514.00
2023-05-01T10:48:37.997Z,511.00
2023-05-01T10:49:37.969Z,512.00
2023-05-01T10:50:37.981Z,513.00
2023-05-01T10:51:38.056Z,512.00
2023-05-01T10:52:38.061Z,512.00
2023-05-01T10:53:38.066Z,515.00
2023-05-01T10:54:38.094Z,515.00
2023-05-01T10:55:38.165Z,514.00
2023-05-01T10:56:38.173Z,513.00
2023-05-01T10:57:38.234Z,515.00
2023-05-01T10:58:38.232Z,514.00
2023-05-01T10:59:38.274Z,513.00
2023-05-01T11:00:38.261Z,517.00
2023-05-01T11:01:38.373Z,513.00
2023-05-01T11:02:38.357Z,515.00
2023-05-01T11:03:38.368Z,518.00
2023-05-01T11:04:38.392Z,519.00
2023-05-01T11:05:38.891Z,523.00
2023-05-01T11:06:38.501Z,522.00
2023-05-01T11:07:38.569Z,524.00
2023-05-01T11:08:38.617Z,527.00
2023-05-01T11:09:38.621Z,528.00
2023-05-01T11:10:38.618Z,530.00
2023-05-01T11:11:38.638Z,536.00
2023-05-01T11:12:38.684Z,539.00
2023-05-01T11:13:38.731Z,545.00
2023-05-01T11:14:38.770Z,542.00
2023-05-01T11:15:38.819Z,538.00
2023-05-01T11:16:39.053Z,543.00
2023-05-01T11:17:38.943Z,557.00
2023-05-01T11:18:39.039Z,559.00
2023-05-01T11:19:38.944Z,548.00
2023-05-01T11:20:38.989Z,544.00
2023-05-01T11:21:39.130Z,541.00
2023-05-01T11:22:39.301Z,543.00
2023-05-01T11:23:39.104Z,543.00
2023-05-01T11:24:39.136Z,545.00
2023-05-01T11:25:39.190Z,543.00
2023-05-01T11:26:39.232Z,547.00
2023-05-01T11:27:39.296Z,562.00
2023-05-01T11:28:39.284Z,585.00
2023-05-01T11:29:39.318Z,608.00
2023-05-01T11:30:39.379Z,622.00
2023-05-01T11:31:39.500Z,629.00
2023-05-01T11:32:39.550Z,623.00
2023-05-01T11:33:39.509Z,610.00
2023-05-01T11:34:39.550Z,598.00
2023-05-01T11:35:39.624Z,591.00
2023-05-01T11:36:39.655Z,596.00
2023-05-01T11:37:39.728Z,596.00
2023-05-01T11:38:39.706Z,594.00
2023-05-01T11:39:39.697Z,594.00
2023-05-01T11:40:39.734Z,594.00
2023-05-01T11:41:39.778Z,589.00
2023-05-01T11:42:39.867Z,589.00
2023-05-01T11:43:39.788Z,583.00
2023-05-01T11:44:39.803Z,583.00
2023-05-01T11:45:39.854Z,588.00
2023-05-01T11:46:39.895Z,599.00
2023-05-01T11:47:39.941Z,603.00
2023-05-01T11:48:39.947Z,607.00
2023-05-01T11:49:39.953Z,604.00
2023-05-01T11:50:40.008Z,602.00
2023-05-01T11:51:40.098Z,593.00
2023-05-01T11:52:40.077Z,593.00
2023-05-01T11:53:40.145Z,594.00
2023-05-01T11:54:40.132Z,590.00
2023-05-01T11:55:40.384Z,588.00
2023-05-01T11:56:40.203Z,586.00
2023-05-01T11:57:40.213Z,583.00
2023-05-01T11:58:40.259Z,578.00
2023-05-01T11:59:40.284Z,577.00
2023-05-01T12:00:40.318Z,580.00
2023-05-01T12:01:40.329Z,576.00
2023-05-01T12:02:40.420Z,577.00
2023-05-01T12:03:40.511Z,573.00
2023-05-01T12:04:40.466Z,574.00
2023-05-01T12:05:40.467Z,576.00
2023-05-01T12:06:40.695Z,570.00
2023-05-01T12:07:40.502Z,567.00
2023-05-01T12:08:40.822Z,570.00
2023-05-01T12:09:40.585Z,567.00
2023-05-01T12:10:40.625Z,568.00
2023-05-01T12:11:40.654Z,568.00
2023-05-01T12:12:40.670Z,567.00
2023-05-01T12:13:40.738Z,566.00
2023-05-01T12:14:40.768Z,565.00
2023-05-01T12:15:40.809Z,566.00
2023-05-01T12:16:40.856Z,568.00
2023-05-01T12:17:40.910Z,566.00
2023-05-01T12:18:40.909Z,566.00
2023-05-01T12:19:40.912Z,570.00
2023-05-01T12:20:40.946Z,569.00
2023-05-01T12:21:40.968Z,570.00
2023-05-01T12:22:40.991Z,569.00
2023-05-01T12:23:41.067Z,566.00
2023-05-01T12:24:41.099Z,569.00
2023-05-01T12:25:41.177Z,571.00
2023-05-01T12:26:41.127Z,568.00
2023-05-01T12:27:41.160Z,566.00
2023-05-01T12:28:41.200Z,572.00